createdAt,value
2019-05-05T00:01:17.352Z,3.30
2019-05-05T00:06:17.099Z,3.80
2019-05-05T00:08:46.492Z,3.75
2019-05-05T00:11:35.170Z,3.90
2019-05-05T00:14:24.460Z,4.70
2019-05-05T00:17:08.531Z,4.90
2019-05-05T00:19:37.934Z,5.07
2019-05-05T00:22:08.534Z,5.80
2019-05-05T00:24:37.883Z,4.55
2019-05-05T00:27:07.374Z,4.35
2019-05-05T00:29:36.696Z,4.40
2019-05-05T00:32:06.021Z,4.58
2019-05-05T00:34:36.679Z,4.62
2019-05-05T00:37:06.009Z,4.50
2019-05-05T00:39:35.328Z,4.47
2019-05-05T00:42:05.707Z,4.62
2019-05-05T00:44:35.347Z,4.05
2019-05-05T00:47:18.650Z,4.78
2019-05-05T00:49:49.636Z,4.67
2019-05-05T00:52:18.963Z,4.58
2019-05-05T00:54:48.304Z,4.45
2019-05-05T00:57:17.606Z,4.55
2019-05-05T00:59:46.925Z,4.55
2019-05-05T01:02:25.046Z,4.85
2019-05-05T01:04:56.355Z,5.83
2019-05-05T01:07:25.687Z,5.28
2019-05-05T01:09:55.013Z,5.20
2019-05-05T01:12:24.716Z,4.60
2019-05-05T01:14:55.230Z,4.75
2019-05-05T01:17:25.397Z,4.83
2019-05-05T01:20:03.350Z,4.75
2019-05-05T01:22:25.765Z,4.50
2019-05-05T01:24:55.508Z,5.08
2019-05-05T01:27:31.501Z,5.08
2019-05-05T01:30:00.997Z,4.62
2019-05-05T01:32:32.306Z,4.70
2019-05-05T01:35:01.898Z,4.70
2019-05-05T01:37:35.945Z,4.25
2019-05-05T01:40:28.540Z,4.67
2019-05-05T01:42:57.865Z,4.60
2019-05-05T01:45:27.260Z,3.95
2019-05-05T01:47:56.593Z,4.58
2019-05-05T01:50:25.929Z,4.00
2019-05-05T01:52:55.654Z,4.78
2019-05-05T01:55:25.441Z,4.92
2019-05-05T01:57:55.922Z,4.05
2019-05-05T02:00:25.487Z,4.20
2019-05-05T02:02:55.505Z,4.22
2019-05-05T02:05:25.155Z,4.22
2019-05-05T02:07:55.338Z,5.08
2019-05-05T02:10:25.761Z,5.30
2019-05-05T02:12:55.262Z,4.60
2019-05-05T02:15:25.103Z,5.05
2019-05-05T02:17:55.140Z,4.25
2019-05-05T02:20:42.250Z,4.30
2019-05-05T02:23:15.032Z,4.85
2019-05-05T02:25:44.958Z,4.55
2019-05-05T02:28:15.065Z,5.05
2019-05-05T02:30:46.564Z,4.62
2019-05-05T02:33:17.694Z,5.05
2019-05-05T02:35:47.095Z,4.50
2019-05-05T02:38:18.029Z,4.78
2019-05-05T02:40:48.377Z,5.10
2019-05-05T02:43:19.347Z,5.33
2019-05-05T02:45:55.226Z,4.62
2019-05-05T02:48:25.923Z,4.03
2019-05-05T02:51:02.325Z,4.60
2019-05-05T02:53:33.851Z,4.95
2019-05-05T02:56:05.276Z,4.62
2019-05-05T02:58:37.955Z,4.80
2019-05-05T03:01:21.648Z,4.45
2019-05-05T03:03:54.156Z,5.67
2019-05-05T03:06:23.762Z,4.60
2019-05-05T03:08:56.076Z,4.70
2019-05-05T03:11:28.009Z,4.90
2019-05-05T03:13:59.174Z,4.92
2019-05-05T03:16:31.540Z,4.62
2019-05-05T03:19:00.929Z,5.08
2019-05-05T03:21:30.388Z,4.87
2019-05-05T03:23:59.816Z,5.42
2019-05-05T03:26:29.710Z,5.00
2019-05-05T03:29:01.023Z,4.83
2019-05-05T03:31:30.664Z,5.40
2019-05-05T03:34:00.566Z,5.17
2019-05-05T03:36:30.668Z,5.87
2019-05-05T03:39:00.298Z,5.62
2019-05-05T03:41:38.330Z,5.58
2019-05-05T03:44:16.038Z,5.62
2019-05-05T03:46:45.707Z,5.50
2019-05-05T03:49:15.717Z,6.10
2019-05-05T03:51:45.240Z,5.37
2019-05-05T03:54:15.416Z,6.72
2019-05-05T03:56:45.483Z,6.00
2019-05-05T03:59:15.288Z,5.67
2019-05-05T04:01:49.507Z,5.10
2019-05-05T04:04:24.410Z,5.95
2019-05-05T04:06:55.623Z,4.85
2019-05-05T04:09:25.441Z,5.62
2019-05-05T04:11:55.664Z,5.22
2019-05-05T04:14:25.237Z,5.55
2019-05-05T04:16:59.358Z,5.67
2019-05-05T04:19:48.067Z,5.72
2019-05-05T04:22:17.397Z,5.75
2019-05-05T04:24:46.728Z,5.05
2019-05-05T04:27:16.049Z,5.55
2019-05-05T04:29:45.605Z,5.22
2019-05-05T04:32:14.929Z,5.40
2019-05-05T04:34:44.289Z,5.40
2019-05-05T04:37:14.928Z,4.90
2019-05-05T04:39:44.640Z,4.60
2019-05-05T04:42:14.309Z,5.20
2019-05-05T04:44:44.890Z,5.00
2019-05-05T04:47:19.385Z,4.95
2019-05-05T04:49:54.020Z,4.65
2019-05-05T04:54:56.405Z,5.00
2019-05-05T04:57:25.807Z,5.58
2019-05-05T04:59:56.205Z,5.25
2019-05-05T05:02:43.718Z,4.62
2019-05-05T05:05:14.870Z,4.70
2019-05-05T05:07:44.197Z,4.90
2019-05-05T05:10:14.012Z,4.70
2019-05-05T05:12:43.668Z,4.75
2019-05-05T05:15:14.576Z,5.25
2019-05-05T05:17:53.409Z,4.67
2019-05-05T05:20:24.547Z,5.37
2019-05-05T05:22:54.450Z,4.50
2019-05-05T05:25:24.070Z,4.37
2019-05-05T05:27:53.990Z,4.92
2019-05-05T05:30:24.377Z,4.55
2019-05-05T05:32:53.949Z,4.58
2019-05-05T05:35:24.389Z,4.72
2019-05-05T05:37:57.351Z,5.15
2019-05-05T05:40:26.610Z,4.92
2019-05-05T05:42:56.824Z,4.85
2019-05-05T05:45:45.983Z,4.95
2019-05-05T05:48:16.948Z,4.72
2019-05-05T05:50:53.775Z,5.00
2019-05-05T05:53:24.008Z,4.37
2019-05-05T05:55:53.953Z,4.83
2019-05-05T05:58:24.547Z,4.58
2019-05-05T06:00:54.848Z,4.55
2019-05-05T06:03:24.602Z,4.10
2019-05-05T06:05:54.159Z,4.22
2019-05-05T06:08:24.257Z,4.47
2019-05-05T06:10:54.723Z,4.70
2019-05-05T06:13:24.370Z,4.70
2019-05-05T06:15:53.765Z,4.65
2019-05-05T06:18:24.288Z,5.03
2019-05-05T06:20:53.954Z,4.37
2019-05-05T06:23:23.998Z,5.55
2019-05-05T06:25:55.072Z,4.60
2019-05-05T06:28:25.654Z,5.67
2019-05-05T06:30:54.977Z,5.00
2019-05-05T06:33:24.371Z,5.35
2019-05-05T06:35:53.923Z,5.22
2019-05-05T06:38:24.161Z,6.10
2019-05-05T06:41:10.145Z,4.87
2019-05-05T06:43:46.971Z,4.90
2019-05-05T06:46:34.391Z,5.60
2019-05-05T06:49:04.375Z,5.50
2019-05-05T06:51:33.968Z,6.03
2019-05-05T06:54:04.617Z,6.83
2019-05-05T06:56:34.261Z,6.20
2019-05-05T06:59:06.248Z,5.30
2019-05-05T07:01:35.613Z,5.85
2019-05-05T07:04:04.994Z,5.55
2019-05-05T07:06:34.415Z,5.33
2019-05-05T07:09:05.477Z,5.60
2019-05-05T07:11:35.376Z,6.33
2019-05-05T07:14:04.872Z,6.10
2019-05-05T07:16:34.580Z,6.22
2019-05-05T07:19:04.439Z,5.97
2019-05-05T07:21:34.309Z,5.95
2019-05-05T07:24:04.043Z,6.42
2019-05-05T07:26:34.066Z,6.55
2019-05-05T07:29:04.552Z,6.58
2019-05-05T07:31:34.331Z,6.67
2019-05-05T07:34:04.741Z,7.58
2019-05-05T07:36:47.102Z,5.95
2019-05-05T07:39:16.422Z,7.08
2019-05-05T07:41:45.850Z,5.97
2019-05-05T07:44:25.719Z,6.15
2019-05-05T07:46:46.326Z,6.47
2019-05-05T07:49:15.891Z,6.20
2019-05-05T07:51:45.240Z,6.10
2019-05-05T07:54:14.737Z,7.10
2019-05-05T07:56:45.016Z,6.30
2019-05-05T07:59:14.773Z,6.90
2019-05-05T08:01:46.579Z,6.83
2019-05-05T08:04:15.254Z,6.58
2019-05-05T08:06:44.680Z,6.03
2019-05-05T08:09:14.640Z,6.22
2019-05-05T08:11:44.136Z,6.33
2019-05-05T08:14:14.613Z,5.90
2019-05-05T08:16:45.713Z,5.75
2019-05-05T08:19:28.658Z,5.50
2019-05-05T08:21:58.002Z,6.28
2019-05-05T08:24:31.421Z,5.83
2019-05-05T08:27:04.521Z,6.28
2019-05-05T08:29:41.046Z,5.93
2019-05-05T08:32:13.580Z,5.55
2019-05-05T08:34:57.447Z,5.17
2019-05-05T08:37:17.250Z,5.62
2019-05-05T08:39:46.579Z,5.95
2019-05-05T08:42:15.920Z,5.47
2019-05-05T08:44:45.254Z,5.35
2019-05-05T08:47:14.692Z,5.72
2019-05-05T08:49:44.363Z,6.25
2019-05-05T08:52:14.526Z,5.70
2019-05-05T08:54:44.759Z,5.47
2019-05-05T08:57:15.274Z,5.95
2019-05-05T08:59:44.606Z,6.28
2019-05-05T09:02:15.041Z,4.95
2019-05-05T09:04:44.809Z,5.45
2019-05-05T09:07:14.490Z,5.30
2019-05-05T09:09:44.280Z,6.25
2019-05-05T09:12:14.065Z,5.62
2019-05-05T09:14:44.941Z,6.83
2019-05-05T09:17:14.329Z,6.65
2019-05-05T09:19:44.993Z,6.12
2019-05-05T09:22:15.343Z,5.40
2019-05-05T09:24:53.624Z,5.20
2019-05-05T09:27:28.419Z,5.22
2019-05-05T09:29:57.848Z,5.72
2019-05-05T09:32:27.348Z,4.58
2019-05-05T09:34:56.679Z,4.62
2019-05-05T09:37:26.900Z,4.60
2019-05-05T09:39:56.272Z,5.17
2019-05-05T09:42:25.610Z,4.42
2019-05-05T09:44:55.109Z,4.30
2019-05-05T09:47:24.443Z,4.80
2019-05-05T09:49:54.964Z,5.03
2019-05-05T09:52:24.518Z,3.92
2019-05-05T09:54:54.983Z,4.58
2019-05-05T09:57:24.585Z,3.92
2019-05-05T09:59:55.590Z,4.35
2019-05-05T10:02:25.236Z,4.03
2019-05-05T10:04:54.772Z,4.20
2019-05-05T10:07:24.382Z,4.28
2019-05-05T10:09:54.358Z,3.87
2019-05-05T10:12:23.747Z,4.75
2019-05-05T10:14:54.214Z,4.87
2019-05-05T10:17:24.359Z,4.30
2019-05-05T10:19:54.699Z,4.20
2019-05-05T10:22:24.054Z,3.85
2019-05-05T10:24:57.398Z,3.62
2019-05-05T10:27:26.106Z,3.20
2019-05-05T10:29:55.523Z,4.10
2019-05-05T10:32:24.846Z,3.80
2019-05-05T10:35:01.300Z,4.10
2019-05-05T10:37:30.616Z,4.05
2019-05-05T10:39:59.960Z,3.77
2019-05-05T10:42:33.692Z,4.40
2019-05-05T10:47:33.675Z,4.25
2019-05-05T10:50:05.043Z,4.25
2019-05-05T10:52:34.496Z,4.40
2019-05-05T10:55:05.913Z,4.40
2019-05-05T10:57:35.559Z,4.08
2019-05-05T11:00:12.477Z,4.25
2019-05-05T11:02:39.950Z,3.92
2019-05-05T11:05:10.122Z,4.28
2019-05-05T11:07:39.633Z,3.77
2019-05-05T11:10:09.221Z,4.28
2019-05-05T11:12:38.586Z,3.77
2019-05-05T11:15:09.345Z,3.90
2019-05-05T11:17:38.683Z,3.95
2019-05-05T11:20:08.254Z,3.83
2019-05-05T11:22:38.632Z,3.60
2019-05-05T11:25:08.036Z,3.40
2019-05-05T11:27:37.376Z,3.33
2019-05-05T11:30:14.313Z,4.37
2019-05-05T11:33:01.339Z,4.12
2019-05-05T11:35:48.748Z,4.67
2019-05-05T11:38:18.082Z,3.83
2019-05-05T11:40:47.418Z,4.55
2019-05-05T11:43:16.882Z,4.08
2019-05-05T11:45:46.382Z,4.33
2019-05-05T11:48:15.780Z,4.17
2019-05-05T11:50:45.382Z,3.95
2019-05-05T11:53:14.716Z,4.10
2019-05-05T11:55:44.378Z,4.50
2019-05-05T11:58:14.445Z,4.22
2019-05-05T12:00:44.051Z,4.40
2019-05-05T12:03:14.313Z,4.35
2019-05-05T12:05:44.374Z,4.42
2019-05-05T12:08:14.680Z,3.60
2019-05-05T12:10:45.720Z,4.03
2019-05-05T12:13:15.111Z,4.42
2019-05-05T12:15:46.354Z,3.72
2019-05-05T12:18:15.723Z,3.05
2019-05-05T12:20:45.051Z,3.12
2019-05-05T12:23:14.390Z,3.42
2019-05-05T12:25:54.185Z,3.80
2019-05-05T12:28:24.191Z,3.50
2019-05-05T12:30:57.486Z,2.80
2019-05-05T12:33:26.858Z,3.20
2019-05-05T12:35:56.189Z,3.02
2019-05-05T12:38:25.550Z,4.50
2019-05-05T12:40:54.878Z,3.05
2019-05-05T12:43:24.708Z,3.40
2019-05-05T12:45:55.684Z,3.30
2019-05-05T12:48:29.051Z,3.22
2019-05-05T12:50:58.604Z,2.80
2019-05-05T12:53:27.973Z,3.05
2019-05-05T12:55:57.336Z,2.80
2019-05-05T12:58:26.663Z,2.72
2019-05-05T13:00:57.932Z,3.25
2019-05-05T13:03:27.295Z,3.60
2019-05-05T13:05:56.908Z,2.83
2019-05-05T13:08:26.534Z,2.85
2019-05-05T13:10:55.890Z,2.80
2019-05-05T13:13:25.999Z,3.00
2019-05-05T13:15:55.443Z,2.30
2019-05-05T13:18:24.785Z,2.90
2019-05-05T13:20:55.747Z,2.67
2019-05-05T13:23:38.310Z,2.30
2019-05-05T13:26:14.998Z,2.00
2019-05-05T13:28:44.331Z,1.98
2019-05-05T13:31:14.669Z,1.90
2019-05-05T13:33:44.304Z,2.00
2019-05-05T13:36:14.709Z,2.62
2019-05-05T13:38:44.039Z,2.50
2019-05-05T13:41:13.736Z,2.33
2019-05-05T13:43:43.101Z,2.33
2019-05-05T13:46:17.038Z,2.15
2019-05-05T13:48:46.519Z,2.50
2019-05-05T13:51:17.727Z,2.95
2019-05-05T13:53:47.062Z,2.42
2019-05-05T13:56:16.459Z,2.42
2019-05-05T13:58:46.995Z,2.22
2019-05-05T14:01:16.348Z,2.50
2019-05-05T14:03:45.955Z,2.80
2019-05-05T14:06:15.283Z,2.42
2019-05-05T14:08:46.066Z,2.45
2019-05-05T14:11:17.033Z,2.70
2019-05-05T14:13:48.521Z,3.05
2019-05-05T14:16:17.402Z,3.10
2019-05-05T14:18:46.736Z,2.70
2019-05-05T14:21:16.162Z,3.02
2019-05-05T14:24:03.834Z,2.70
2019-05-05T14:26:35.356Z,2.80
2019-05-05T14:29:05.231Z,2.90
2019-05-05T14:31:38.861Z,2.55
2019-05-05T14:34:13.927Z,2.90
2019-05-05T14:36:45.029Z,3.08
2019-05-05T14:39:16.041Z,3.62
2019-05-05T14:41:45.366Z,3.12
2019-05-05T14:44:14.964Z,3.87
2019-05-05T14:46:44.652Z,3.47
2019-05-05T14:49:14.207Z,3.55
2019-05-05T14:51:44.674Z,3.52
2019-05-05T14:54:14.976Z,3.27
2019-05-05T14:56:44.353Z,4.08
2019-05-05T14:59:14.253Z,3.22
2019-05-05T15:01:44.713Z,3.37
2019-05-05T15:04:16.172Z,3.33
2019-05-05T15:06:47.430Z,3.95
2019-05-05T15:09:27.207Z,3.52
2019-05-05T15:11:58.274Z,3.33
2019-05-05T15:14:27.631Z,3.12
2019-05-05T15:16:56.967Z,3.02
2019-05-05T15:19:26.426Z,3.45
2019-05-05T15:21:55.895Z,3.08
2019-05-05T15:24:25.496Z,3.40
2019-05-05T15:26:55.213Z,3.65
2019-05-05T15:29:25.235Z,3.22
2019-05-05T15:31:54.765Z,2.77
2019-05-05T15:34:24.377Z,3.00
2019-05-05T15:36:54.674Z,3.05
2019-05-05T15:39:24.549Z,2.80
2019-05-05T15:41:54.391Z,3.15
2019-05-05T15:44:24.286Z,3.75
2019-05-05T15:46:57.666Z,3.40
2019-05-05T15:49:25.017Z,3.83
2019-05-05T15:51:54.351Z,3.77
2019-05-05T15:54:23.832Z,3.77
2019-05-05T15:57:04.851Z,4.20
2019-05-05T15:59:24.415Z,4.20
2019-05-05T16:01:54.907Z,3.65
2019-05-05T16:04:24.357Z,3.92
2019-05-05T16:06:54.217Z,5.17
2019-05-05T16:09:23.879Z,4.72
2019-05-05T16:11:54.563Z,3.80
2019-05-05T16:14:24.429Z,3.85
2019-05-05T16:16:56.095Z,3.72
2019-05-05T16:19:28.863Z,3.67
2019-05-05T16:22:00.105Z,3.55
2019-05-05T16:24:37.011Z,3.75
2019-05-05T16:27:18.838Z,3.00
2019-05-05T16:29:38.364Z,4.20
2019-05-05T16:32:17.911Z,3.17
2019-05-05T16:34:38.786Z,3.17
2019-05-05T16:37:08.115Z,3.22
2019-05-05T16:39:37.578Z,2.60
2019-05-05T16:42:06.943Z,3.30
2019-05-05T16:44:36.560Z,3.08
2019-05-05T16:47:05.923Z,3.70
2019-05-05T16:49:35.552Z,3.62
2019-05-05T16:52:06.544Z,3.95
2019-05-05T16:54:37.509Z,3.95
2019-05-05T16:57:06.847Z,3.12
2019-05-05T16:59:36.244Z,3.75
2019-05-05T17:02:05.571Z,3.45
2019-05-05T17:04:35.649Z,3.30
2019-05-05T17:07:05.013Z,3.08
2019-05-05T17:09:34.625Z,3.00
2019-05-05T17:12:10.066Z,3.00
2019-05-05T17:14:47.384Z,3.17
2019-05-05T17:17:20.759Z,3.20
2019-05-05T17:19:53.952Z,3.33
2019-05-05T17:22:40.834Z,3.37
2019-05-05T17:25:10.402Z,3.92
2019-05-05T17:27:48.562Z,3.60
2019-05-05T17:30:11.467Z,3.98
2019-05-05T17:32:40.801Z,3.42
2019-05-05T17:35:10.593Z,3.02
2019-05-05T17:37:40.599Z,3.25
2019-05-05T17:40:12.570Z,3.10
2019-05-05T17:42:49.493Z,3.70
2019-05-05T17:45:23.629Z,4.35
2019-05-05T17:47:57.085Z,3.83
2019-05-05T17:50:45.326Z,3.52
2019-05-05T17:53:16.378Z,3.30
2019-05-05T17:55:45.942Z,3.02
2019-05-05T17:58:15.311Z,3.37
2019-05-05T18:00:47.141Z,3.27
2019-05-05T18:03:17.518Z,4.17
2019-05-05T18:06:05.900Z,3.62
2019-05-05T18:08:37.028Z,2.90
2019-05-05T18:11:22.908Z,3.30
2019-05-05T18:13:56.579Z,3.70
2019-05-05T18:18:56.450Z,3.20
2019-05-05T18:21:28.762Z,3.65
2019-05-05T18:23:56.813Z,3.50
2019-05-05T18:26:26.168Z,3.75
2019-05-05T18:28:55.514Z,3.22
2019-05-05T18:31:24.833Z,3.12
2019-05-05T18:33:55.134Z,2.90
2019-05-05T18:36:24.487Z,2.98
2019-05-05T18:38:53.977Z,3.30
2019-05-05T18:41:34.461Z,3.40
2019-05-05T18:44:05.435Z,3.25
2019-05-05T18:46:34.758Z,3.17
2019-05-05T18:49:04.411Z,2.75
2019-05-05T18:51:34.752Z,2.98
2019-05-05T18:54:04.486Z,3.10
2019-05-05T18:56:34.788Z,2.90
2019-05-05T18:59:06.514Z,2.72
2019-05-05T19:01:45.871Z,2.98
2019-05-05T19:04:17.077Z,2.65
2019-05-05T19:06:48.061Z,3.33
2019-05-05T19:09:22.183Z,3.08
2019-05-05T19:11:51.744Z,3.20
2019-05-05T19:14:21.384Z,3.30
2019-05-05T19:16:50.676Z,3.40
2019-05-05T19:19:19.998Z,2.90
2019-05-05T19:21:54.717Z,3.12
2019-05-05T19:24:24.446Z,3.42
2019-05-05T19:26:55.891Z,3.47
2019-05-05T19:29:24.798Z,3.30
2019-05-05T19:31:54.725Z,3.00
2019-05-05T19:34:24.188Z,2.98
2019-05-05T19:36:54.651Z,2.80
2019-05-05T19:39:24.391Z,2.77
2019-05-05T19:41:54.413Z,3.08
2019-05-05T19:44:25.973Z,2.45
2019-05-05T19:46:59.238Z,2.47
2019-05-05T19:51:57.310Z,2.87
2019-05-05T19:54:26.842Z,2.50
2019-05-05T19:56:56.202Z,2.77
2019-05-05T19:59:25.529Z,2.50
2019-05-05T20:01:54.899Z,2.75
2019-05-05T20:04:24.259Z,2.87
2019-05-05T20:06:54.827Z,2.40
2019-05-05T20:09:24.805Z,2.80
2019-05-05T20:11:54.968Z,3.33
2019-05-05T20:14:24.882Z,3.10
2019-05-05T20:17:01.530Z,2.87
2019-05-05T20:19:34.224Z,2.87
2019-05-05T20:22:03.843Z,2.67
2019-05-05T20:24:33.815Z,2.95
2019-05-05T20:27:04.588Z,3.72
2019-05-05T20:29:37.193Z,2.65
2019-05-05T20:32:05.250Z,3.30
2019-05-05T20:34:38.927Z,3.17
2019-05-05T20:39:39.423Z,3.47
2019-05-05T20:42:08.841Z,2.83
2019-05-05T20:44:38.431Z,3.20
2019-05-05T20:47:08.006Z,3.40
2019-05-05T20:49:37.400Z,3.30
2019-05-05T20:52:06.750Z,3.12
2019-05-05T20:54:36.413Z,3.60
2019-05-05T20:57:05.831Z,3.33
2019-05-05T20:59:35.162Z,3.77
2019-05-05T21:02:04.732Z,3.55
2019-05-05T21:04:35.362Z,3.40
2019-05-05T21:07:04.691Z,3.77
2019-05-05T21:09:34.634Z,3.10
2019-05-05T21:12:04.893Z,3.50
2019-05-05T21:14:37.904Z,3.90
2019-05-05T21:17:06.167Z,3.37
2019-05-05T21:19:35.487Z,4.05
2019-05-05T21:22:23.062Z,3.70
2019-05-05T21:24:54.268Z,3.10
2019-05-05T21:27:24.509Z,3.70
2019-05-05T21:29:55.156Z,4.28
2019-05-05T21:32:25.361Z,4.03
2019-05-05T21:34:55.834Z,4.42
2019-05-05T21:37:25.631Z,4.55
2019-05-05T21:39:55.323Z,5.00
2019-05-05T21:42:24.799Z,5.42
2019-05-05T21:44:54.313Z,5.00
2019-05-05T21:47:24.065Z,5.67
2019-05-05T21:49:54.213Z,4.40
2019-05-05T21:52:26.511Z,4.87
2019-05-05T21:54:58.494Z,4.67
2019-05-05T21:57:45.623Z,5.10
2019-05-05T22:00:34.995Z,4.75
2019-05-05T22:03:06.400Z,5.25
2019-05-05T22:05:36.085Z,5.17
2019-05-05T22:08:05.457Z,5.15
2019-05-05T22:10:35.146Z,4.53
2019-05-05T22:13:04.983Z,4.78
2019-05-05T22:15:35.803Z,4.62
2019-05-05T22:18:05.253Z,5.08
2019-05-05T22:20:44.232Z,4.35
2019-05-05T22:23:14.523Z,5.00
2019-05-05T22:25:44.465Z,4.78
2019-05-05T22:28:14.043Z,5.15
2019-05-05T22:30:43.794Z,5.42
2019-05-05T22:33:13.740Z,5.42
2019-05-05T22:35:44.335Z,4.90
2019-05-05T22:38:13.893Z,4.85
2019-05-05T22:40:44.094Z,5.10
2019-05-05T22:43:15.172Z,5.58
2019-05-05T22:45:45.539Z,6.28
2019-05-05T22:48:15.062Z,5.85
2019-05-05T22:50:44.433Z,5.28
2019-05-05T22:53:14.001Z,5.80
2019-05-05T22:55:45.338Z,5.60
2019-05-05T22:58:14.694Z,5.95
2019-05-05T23:00:44.562Z,5.15
2019-05-05T23:03:21.539Z,5.00
2019-05-05T23:05:55.463Z,5.33
2019-05-05T23:08:25.310Z,5.15
2019-05-05T23:10:54.656Z,4.75
2019-05-05T23:13:24.223Z,5.33
2019-05-05T23:16:01.420Z,5.47
2019-05-05T23:18:31.029Z,5.30
2019-05-05T23:21:04.771Z,5.62
2019-05-05T23:26:08.880Z,5.87
2019-05-05T23:28:38.206Z,5.25
2019-05-05T23:31:09.133Z,5.60
2019-05-05T23:33:38.559Z,5.03
2019-05-05T23:36:08.024Z,5.72
2019-05-05T23:38:37.431Z,5.90
2019-05-05T23:41:06.936Z,5.85
2019-05-05T23:43:36.353Z,6.00
2019-05-05T23:46:05.854Z,6.20
2019-05-05T23:48:35.254Z,5.90
2019-05-05T23:51:04.633Z,6.75
2019-05-05T23:53:34.602Z,6.60
2019-05-05T23:56:04.100Z,6.00
2019-05-05T23:58:34.856Z,6.25
